Time,TemperatureF,DewpointF,PressureIn,WindDirection,WindDirectionDegrees,WindSpeedMPH,WindSpeedGustMPH,Humidity,HourlyPrecipIn,Conditions,Clouds,dailyrainin,SoftwareType,DateUTC
2013-09-25 00:01:00,59.3,52.1,29.94,ENE,64,1.0,1.0,77,0.00,,,0.00,Wunderground v.1.15,2013-09-25 04:01:00,
2013-09-25 00:05:00,59.1,51.9,29.94,ENE,64,1.0,1.0,77,0.00,,,0.00,Wunderground v.1.15,2013-09-25 04:05:00,
2013-09-25 00:11:00,58.9,52.1,29.94,ENE,64,1.0,1.0,78,0.00,,,0.00,Wunderground v.1.15,2013-09-25 04:11:00,
2013-09-25 00:20:00,58.7,51.9,29.94,ENE,64,0.0,0.0,78,0.00,,,0.00,Wunderground v.1.15,2013-09-25 04:20:00,
2013-09-25 00:25:00,58.5,51.7,29.94,ENE,64,0.0,0.0,78,0.00,,,0.00,Wunderground v.1.15,2013-09-25 04:25:00,
2013-09-25 00:30:00,58.3,51.8,29.94,ENE,64,0.0,0.0,79,0.00,,,0.00,Wunderground v.1.15,2013-09-25 04:30:00,
2013-09-25 00:40:00,57.8,51.7,29.94,ENE,64,0.0,0.0,80,0.00,,,0.00,Wunderground v.1.15,2013-09-25 04:40:00,
2013-09-25 00:50:00,57.5,51.4,29.95,ENE,64,0.0,0.0,80,0.00,,,0.00,Wunderground v.1.15,2013-09-25 04:50:00,
2013-09-25 01:00:00,57.3,51.2,29.94,ENE,64,0.0,0.0,80,0.00,,,0.00,Wunderground v.1.15,2013-09-25 05:00:00,
2013-09-25 01:06:00,57.2,51.1,29.94,ENE,64,0.0,0.0,80,0.00,,,0.00,Wunderground v.1.15,2013-09-25 05:06:00,
2013-09-25 01:11:00,57.2,51.4,29.94,ENE,64,1.0,2.0,81,0.00,,,0.00,Wunderground v.1.15,2013-09-25 05:11:00,
2013-09-25 01:20:00,56.9,51.5,29.94,ENE,64,1.0,1.0,82,0.00,,,0.00,Wunderground v.1.15,2013-09-25 05:20:00,
2013-09-25 01:30:00,56.7,50.9,29.94,ENE,64,0.0,0.0,81,0.00,,,0.00,Wunderground v.1.15,2013-09-25 05:30:00,
2013-09-25 01:40:00,56.4,51.0,29.94,ENE,64,0.0,0.0,82,0.00,,,0.00,Wunderground v.1.15,2013-09-25 05:40:00,
2013-09-25 01:50:00,56.3,50.9,29.94,ENE,64,0.0,0.0,82,0.00,,,0.00,Wunderground v.1.15,2013-09-25 05:50:00,
2013-09-25 02:00:00,56.3,50.9,29.93,ENE,64,0.0,0.0,82,0.00,,,0.00,Wunderground v.1.15,2013-09-25 06:00:00,
2013-09-25 02:10:00,56.3,50.5,29.93,ENE,64,0.0,0.0,81,0.00,,,0.00,Wunderground v.1.15,2013-09-25 06:10:00,
2013-09-25 02:20:00,56.4,51.0,29.93,ENE,64,0.0,1.0,82,0.00,,,0.00,Wunderground v.1.15,2013-09-25 06:20:00,
2013-09-25 02:30:00,56.3,50.9,29.93,ENE,64,0.0,0.0,82,0.00,,,0.00,Wunderground v.1.15,2013-09-25 06:30:00,
2013-09-25 02:40:00,56.3,51.2,29.93,ENE,64,0.0,0.0,83,0.00,,,0.00,Wunderground v.1.15,2013-09-25 06:40:00,
2013-09-25 02:50:00,56.1,51.0,29.92,ENE,64,0.0,0.0,83,0.00,,,0.00,Wunderground v.1.15,2013-09-25 06:50:00,
2013-09-25 03:00:00,56.0,50.9,29.92,ENE,64,0.0,0.0,83,0.00,,,0.00,Wunderground v.1.15,2013-09-25 07:00:00,
2013-09-25 03:10:00,55.8,51.0,29.91,ENE,64,0.0,0.0,84,0.00,,,0.00,Wunderground v.1.15,2013-09-25 07:10:00,
2013-09-25 03:21:00,55.5,51.1,29.92,ENE,64,0.0,0.0,85,0.00,,,0.00,Wunderground v.1.15,2013-09-25 07:21:00,
2013-09-25 03:30:00,55.2,50.8,29.92,ENE,64,0.0,0.0,85,0.00,,,0.00,Wunderground v.1.15,2013-09-25 07:30:00,
2013-09-25 03:40:00,55.1,51.0,29.92,ENE,64,0.0,0.0,86,0.00,,,0.00,Wunderground v.1.15,2013-09-25 07:40:00,
2013-09-25 03:50:00,55.1,51.0,29.91,ENE,64,0.0,0.0,86,0.00,,,0.00,Wunderground v.1.15,2013-09-25 07:50:00,
2013-09-25 04:00:00,55.0,50.9,29.91,ENE,64,0.0,0.0,86,0.00,,,0.00,Wunderground v.1.15,2013-09-25 08:00:00,
2013-09-25 04:10:00,54.7,50.9,29.91,ENE,64,0.0,0.0,87,0.00,,,0.00,Wunderground v.1.15,2013-09-25 08:10:00,
2013-09-25 04:20:00,54.4,50.6,29.91,ENE,64,0.0,0.0,87,0.00,,,0.00,Wunderground v.1.15,2013-09-25 08:20:00,
2013-09-25 04:30:00,54.5,51.0,29.91,ENE,64,0.0,0.0,88,0.00,,,0.00,Wunderground v.1.15,2013-09-25 08:30:00,
2013-09-25 04:40:00,54.6,51.1,29.90,ENE,64,1.0,2.0,88,0.00,,,0.00,Wunderground v.1.15,2013-09-25 08:40:00,
2013-09-25 04:50:00,54.7,50.9,29.90,ENE,64,1.0,1.0,87,0.00,,,0.00,Wunderground v.1.15,2013-09-25 08:50:00,
2013-09-25 05:00:00,54.6,50.8,29.91,ENE,64,0.0,2.0,87,0.00,,,0.00,Wunderground v.1.15,2013-09-25 09:00:00,
2013-09-25 05:10:00,54.4,50.9,29.91,ENE,64,0.0,0.0,88,0.00,,,0.00,Wunderground v.1.15,2013-09-25 09:10:00,
2013-09-25 05:21:00,54.4,50.9,29.91,ENE,64,0.0,2.0,88,0.00,,,0.00,Wunderground v.1.15,2013-09-25 09:21:00,
2013-09-25 05:30:00,54.3,50.8,29.91,ENE,64,0.0,0.0,88,0.00,,,0.00,Wunderground v.1.15,2013-09-25 09:30:00,
2013-09-25 05:41:00,54.1,50.6,29.91,ENE,64,0.0,0.0,88,0.00,,,0.00,Wunderground v.1.15,2013-09-25 09:41:00,
2013-09-25 05:51:00,54.0,50.8,29.91,ENE,64,0.0,0.0,89,0.00,,,0.00,Wunderground v.1.15,2013-09-25 09:51:00,
2013-09-25 06:01:00,53.7,50.5,29.91,ENE,64,0.0,0.0,89,0.00,,,0.00,Wunderground v.1.15,2013-09-25 10:01:00,
2013-09-25 06:10:00,53.6,50.4,29.92,ENE,64,0.0,0.0,89,0.00,,,0.00,Wunderground v.1.15,2013-09-25 10:10:00,
2013-09-25 06:20:00,53.5,50.6,29.92,ENE,64,0.0,0.0,90,0.00,,,0.00,Wunderground v.1.15,2013-09-25 10:20:00,
2013-09-25 06:30:00,53.5,50.6,29.92,ENE,64,0.0,0.0,90,0.00,,,0.00,Wunderground v.1.15,2013-09-25 10:30:00,
2013-09-25 06:40:00,53.8,50.9,29.92,ENE,64,0.0,0.0,90,0.00,,,0.00,Wunderground v.1.15,2013-09-25 10:40:00,
2013-09-25 06:51:00,54.0,51.1,29.92,ENE,64,0.0,0.0,90,0.00,,,0.00,Wunderground v.1.15,2013-09-25 10:51:00,
2013-09-25 07:01:00,54.0,50.8,29.93,ENE,64,0.0,0.0,89,0.00,,,0.00,Wunderground v.1.15,2013-09-25 11:01:00,
2013-09-25 07:10:00,53.9,51.6,29.92,ENE,64,0.0,0.0,92,0.00,,,0.00,Wunderground v.1.15,2013-09-25 11:10:00,
2013-09-25 07:20:00,53.8,50.6,29.92,ENE,64,0.0,0.0,89,0.00,,,0.00,Wunderground v.1.15,2013-09-25 11:20:00,
2013-09-25 07:30:00,53.6,50.4,29.92,ENE,64,0.0,1.0,89,0.00,,,0.00,Wunderground v.1.15,2013-09-25 11:30:00,
2013-09-25 07:40:00,53.3,50.1,29.93,ENE,64,0.0,0.0,89,0.00,,,0.00,Wunderground v.1.15,2013-09-25 11:40:00,
2013-09-25 07:50:00,53.2,50.9,29.93,ENE,64,0.0,0.0,92,0.00,,,0.00,Wunderground v.1.15,2013-09-25 11:50:00,
2013-09-25 08:01:00,53.2,50.0,29.93,ENE,64,0.0,0.0,89,0.00,,,0.00,Wunderground v.1.15,2013-09-25 12:01:00,
2013-09-25 08:10:00,53.2,50.3,29.93,ENE,64,0.0,0.0,90,0.00,,,0.00,Wunderground v.1.15,2013-09-25 12:10:00,
2013-09-25 08:20:00,53.3,50.4,29.94,ENE,64,1.0,1.0,90,0.00,,,0.00,Wunderground v.1.15,2013-09-25 12:20:00,
2013-09-25 08:30:00,53.5,50.6,29.93,ENE,64,0.0,2.0,90,0.00,,,0.00,Wunderground v.1.15,2013-09-25 12:30:00,
2013-09-25 08:40:00,53.6,50.7,29.94,ENE,64,0.0,0.0,90,0.00,,,0.00,Wunderground v.1.15,2013-09-25 12:40:00,
2013-09-25 08:50:00,54.0,51.1,29.94,ENE,64,0.0,0.0,90,0.00,,,0.00,Wunderground v.1.15,2013-09-25 12:50:00,
2013-09-25 08:55:00,54.3,51.1,29.93,ENE,64,0.0,0.0,89,0.00,,,0.00,Wunderground v.1.15,2013-09-25 12:55:00,
2013-09-25 09:00:00,54.8,51.6,29.94,ENE,64,0.0,0.0,89,0.00,,,0.00,Wunderground v.1.15,2013-09-25 13:00:00,
2013-09-25 09:06:00,55.1,51.6,29.94,ENE,64,0.0,1.0,88,0.00,,,0.00,Wunderground v.1.15,2013-09-25 13:06:00,
2013-09-25 09:15:00,55.8,51.7,29.94,East,93,0.0,0.0,86,0.00,,,0.00,Wunderground v.1.15,2013-09-25 13:15:00,
2013-09-25 09:21:00,56.2,52.1,29.94,East,93,0.0,0.0,86,0.00,,,0.00,Wunderground v.1.15,2013-09-25 13:21:00,
2013-09-25 09:31:00,57.1,52.6,29.94,East,93,0.0,0.0,85,0.00,,,0.00,Wunderground v.1.15,2013-09-25 13:31:00,
2013-09-25 09:41:00,57.9,52.8,29.94,East,93,0.0,0.0,83,0.00,,,0.00,Wunderground v.1.15,2013-09-25 13:41:00,
2013-09-25 09:51:00,59.2,53.4,29.94,NE,53,0.0,1.0,81,0.00,,,0.00,Wunderground v.1.15,2013-09-25 13:51:00,
2013-09-25 10:01:00,59.8,53.3,29.94,ENE,57,2.0,2.0,79,0.00,,,0.00,Wunderground v.1.15,2013-09-25 14:01:00,
2013-09-25 10:11:00,60.3,53.8,29.94,NE,34,0.0,0.0,79,0.00,,,0.00,Wunderground v.1.15,2013-09-25 14:11:00,
2013-09-25 10:21:00,60.9,54.3,29.94,NNE,22,1.0,1.0,79,0.00,,,0.00,Wunderground v.1.15,2013-09-25 14:21:00,
2013-09-25 10:31:00,62.2,54.5,29.94,East,86,1.0,1.0,76,0.00,,,0.00,Wunderground v.1.15,2013-09-25 14:31:00,
2013-09-25 10:41:00,62.7,54.7,29.94,NNE,26,2.0,3.0,75,0.00,,,0.00,Wunderground v.1.15,2013-09-25 14:41:00,
2013-09-25 10:50:00,63.9,55.8,29.94,North,10,1.0,2.0,75,0.00,,,0.00,Wunderground v.1.15,2013-09-25 14:50:00,
2013-09-25 11:00:00,65.6,57.5,29.94,North,10,2.0,2.0,75,0.00,,,0.00,Wunderground v.1.15,2013-09-25 15:00:00,
2013-09-25 11:06:00,66.5,58.3,29.94,ENE,71,2.0,2.0,75,0.00,,,0.00,Wunderground v.1.15,2013-09-25 15:06:00,
2013-09-25 11:11:00,66.9,57.6,29.94,SE,128,3.0,7.0,72,0.00,,,0.00,Wunderground v.1.15,2013-09-25 15:11:00,
2013-09-25 11:21:00,66.1,56.8,29.94,ESE,109,4.0,5.0,72,0.00,,,0.00,Wunderground v.1.15,2013-09-25 15:21:00,
2013-09-25 11:31:00,66.1,56.8,29.94,ESE,102,4.0,4.0,72,0.00,,,0.00,Wunderground v.1.15,2013-09-25 15:31:00,
2013-09-25 11:41:00,66.2,57.3,29.94,SE,125,3.0,5.0,73,0.00,,,0.00,Wunderground v.1.15,2013-09-25 15:41:00,
2013-09-25 11:51:00,66.7,57.0,29.94,ESE,121,4.0,4.0,71,0.00,,,0.00,Wunderground v.1.15,2013-09-25 15:51:00,
2013-09-25 12:01:00,66.9,57.6,29.94,ESE,123,5.0,7.0,72,0.00,,,0.00,Wunderground v.1.15,2013-09-25 16:01:00,
2013-09-25 12:10:00,67.4,58.1,29.94,ESE,120,5.0,5.0,72,0.00,,,0.00,Wunderground v.1.15,2013-09-25 16:10:00,
2013-09-25 12:20:00,67.7,57.6,29.94,SE,131,5.0,6.0,70,0.00,,,0.00,Wunderground v.1.15,2013-09-25 16:20:00,
2013-09-25 12:30:00,68.2,57.6,29.94,East,92,4.0,5.0,69,0.00,,,0.00,Wunderground v.1.15,2013-09-25 16:30:00,
2013-09-25 12:41:00,68.5,57.9,29.93,East,100,4.0,4.0,69,0.00,,,0.00,Wunderground v.1.15,2013-09-25 16:41:00,
2013-09-25 12:51:00,68.7,57.7,29.93,East,84,7.0,7.0,68,0.00,,,0.00,Wunderground v.1.15,2013-09-25 16:51:00,
2013-09-25 13:01:00,69.4,58.0,29.93,East,98,6.0,7.0,67,0.00,,,0.00,Wunderground v.1.15,2013-09-25 17:01:00,
2013-09-25 13:10:00,69.3,57.9,29.93,ESE,113,6.0,6.0,67,0.00,,,0.00,Wunderground v.1.15,2013-09-25 17:10:00,
2013-09-25 13:20:00,70.0,58.1,29.92,East,98,5.0,8.0,66,0.00,,,0.00,Wunderground v.1.15,2013-09-25 17:20:00,
2013-09-25 13:30:00,70.6,57.8,29.92,NE,50,4.0,4.0,64,0.00,,,0.00,Wunderground v.1.15,2013-09-25 17:30:00,
2013-09-25 13:40:00,71.2,58.0,29.92,East,90,2.0,2.0,63,0.00,,,0.00,Wunderground v.1.15,2013-09-25 17:40:00,
2013-09-25 13:51:00,71.4,57.7,29.92,ESE,111,3.0,3.0,62,0.00,,,0.00,Wunderground v.1.15,2013-09-25 17:51:00,
2013-09-25 14:01:00,71.8,57.6,29.92,NNE,19,3.0,3.0,61,0.00,,,0.00,Wunderground v.1.15,2013-09-25 18:01:00,
2013-09-25 14:10:00,71.5,57.8,29.91,ESE,111,5.0,7.0,62,0.00,,,0.00,Wunderground v.1.15,2013-09-25 18:10:00,
2013-09-25 14:20:00,71.6,57.4,29.91,East,88,5.0,7.0,61,0.00,,,0.00,Wunderground v.1.15,2013-09-25 18:20:00,
2013-09-25 14:30:00,71.7,56.1,29.91,East,98,4.0,6.0,58,0.00,,,0.00,Wunderground v.1.15,2013-09-25 18:30:00,
2013-09-25 14:41:00,72.1,57.9,29.90,East,98,3.0,5.0,61,0.00,,,0.00,Wunderground v.1.15,2013-09-25 18:41:00,
2013-09-25 14:51:00,72.5,56.4,29.90,ESE,108,3.0,7.0,57,0.00,,,0.00,Wunderground v.1.15,2013-09-25 18:51:00,
2013-09-25 15:00:00,72.7,57.1,29.90,East,94,2.0,2.0,58,0.00,,,0.00,Wunderground v.1.15,2013-09-25 19:00:00,
2013-09-25 15:05:00,72.8,55.2,29.90,North,350,3.0,3.0,54,0.00,,,0.00,Wunderground v.1.15,2013-09-25 19:05:00,
2013-09-25 15:15:00,72.9,55.3,29.90,NE,47,2.0,3.0,54,0.00,,,0.00,Wunderground v.1.15,2013-09-25 19:15:00,
2013-09-25 15:20:00,72.8,56.7,29.90,East,95,2.0,2.0,57,0.00,,,0.00,Wunderground v.1.15,2013-09-25 19:20:00,
2013-09-25 15:31:00,73.2,56.1,29.89,NE,48,2.0,2.0,55,0.00,,,0.00,Wunderground v.1.15,2013-09-25 19:31:00,
2013-09-25 15:40:00,73.9,55.7,29.89,North,11,2.0,2.0,53,0.00,,,0.00,Wunderground v.1.15,2013-09-25 19:40:00,
2013-09-25 15:51:00,73.6,55.9,29.89,ESE,115,2.0,2.0,54,0.00,,,0.00,Wunderground v.1.15,2013-09-25 19:51:00,
2013-09-25 16:00:00,74.0,56.3,29.89,NNE,18,1.0,1.0,54,0.00,,,0.00,Wunderground v.1.15,2013-09-25 20:00:00,
2013-09-25 16:06:00,74.4,56.7,29.89,ENE,74,1.0,4.0,54,0.00,,,0.00,Wunderground v.1.15,2013-09-25 20:06:00,
2013-09-25 16:11:00,74.5,56.8,29.89,ENE,57,2.0,2.0,54,0.00,,,0.00,Wunderground v.1.15,2013-09-25 20:11:00,
2013-09-25 16:21:00,74.2,56.5,29.89,ESE,108,1.0,2.0,54,0.00,,,0.00,Wunderground v.1.15,2013-09-25 20:21:00,
2013-09-25 16:30:00,74.3,56.1,29.89,ENE,75,2.0,2.0,53,0.00,,,0.00,Wunderground v.1.15,2013-09-25 20:30:00,
2013-09-25 16:40:00,74.9,55.6,29.89,North,5,1.0,2.0,51,0.00,,,0.00,Wunderground v.1.15,2013-09-25 20:40:00,
2013-09-25 16:50:00,74.3,54.5,29.89,West,269,3.0,3.0,50,0.00,,,0.00,Wunderground v.1.15,2013-09-25 20:50:00,
2013-09-25 17:00:00,74.3,54.5,29.89,ENE,78,2.0,2.0,50,0.00,,,0.00,Wunderground v.1.15,2013-09-25 21:00:00,
2013-09-25 17:06:00,74.4,54.5,29.89,NNW,333,2.0,3.0,50,0.00,,,0.00,Wunderground v.1.15,2013-09-25 21:06:00,
2013-09-25 17:11:00,74.3,54.5,29.89,NNW,340,2.0,2.0,50,0.00,,,0.00,Wunderground v.1.15,2013-09-25 21:11:00,
2013-09-25 17:21:00,74.1,53.7,29.89,NNW,329,2.0,2.0,49,0.00,,,0.00,Wunderground v.1.15,2013-09-25 21:21:00,
2013-09-25 17:31:00,74.2,53.2,29.89,NNW,330,1.0,2.0,48,0.00,,,0.00,Wunderground v.1.15,2013-09-25 21:31:00,
2013-09-25 17:41:00,74.3,53.9,29.89,NW,326,1.0,3.0,49,0.00,,,0.00,Wunderground v.1.15,2013-09-25 21:41:00,
2013-09-25 17:51:00,74.4,53.4,29.88,NW,325,1.0,1.0,48,0.00,,,0.00,Wunderground v.1.15,2013-09-25 21:51:00,
2013-09-25 18:01:00,74.2,53.2,29.88,NW,325,1.0,1.0,48,0.00,,,0.00,Wunderground v.1.15,2013-09-25 22:01:00,
2013-09-25 18:11:00,74.2,53.8,29.88,NW,325,0.0,0.0,49,0.00,,,0.00,Wunderground v.1.15,2013-09-25 22:11:00,
2013-09-25 18:21:00,74.1,54.8,29.88,NW,325,0.0,0.0,51,0.00,,,0.00,Wunderground v.1.15,2013-09-25 22:21:00,
2013-09-25 18:31:00,73.3,55.6,29.89,NE,42,2.0,4.0,54,0.00,,,0.00,Wunderground v.1.15,2013-09-25 22:31:00,
2013-09-25 18:40:00,72.2,55.6,29.89,East,89,3.0,5.0,56,0.00,,,0.00,Wunderground v.1.15,2013-09-25 22:40:00,
2013-09-25 18:51:00,71.2,56.6,29.89,East,88,2.0,2.0,60,0.00,,,0.00,Wunderground v.1.15,2013-09-25 22:51:00,
2013-09-25 19:00:00,69.8,56.6,29.89,East,88,0.0,0.0,63,0.00,,,0.00,Wunderground v.1.15,2013-09-25 23:00:00,
2013-09-25 19:06:00,69.2,56.9,29.89,East,88,0.0,0.0,65,0.00,,,0.00,Wunderground v.1.15,2013-09-25 23:06:00,
2013-09-25 19:11:00,68.7,57.7,29.89,East,88,0.0,0.0,68,0.00,,,0.00,Wunderground v.1.15,2013-09-25 23:11:00,
2013-09-25 19:21:00,66.9,56.8,29.89,East,88,0.0,0.0,70,0.00,,,0.00,Wunderground v.1.15,2013-09-25 23:21:00,
2013-09-25 19:30:00,65.7,56.4,29.89,East,88,0.0,0.0,72,0.00,,,0.00,Wunderground v.1.15,2013-09-25 23:30:00,
2013-09-25 19:40:00,64.4,55.9,29.90,East,88,0.0,0.0,74,0.00,,,0.00,Wunderground v.1.15,2013-09-25 23:40:00,
2013-09-25 19:51:00,63.8,55.7,29.90,East,88,1.0,1.0,75,0.00,,,0.00,Wunderground v.1.15,2013-09-25 23:51:00,
2013-09-25 20:01:00,63.6,55.2,29.90,East,88,0.0,0.0,74,0.00,,,0.00,Wunderground v.1.15,2013-09-26 00:01:00,
2013-09-25 20:10:00,63.6,55.2,29.90,East,88,0.0,0.0,74,0.00,,,0.00,Wunderground v.1.15,2013-09-26 00:10:00,
2013-09-25 20:20:00,63.4,55.0,29.90,East,88,0.0,0.0,74,0.00,,,0.00,Wunderground v.1.15,2013-09-26 00:20:00,
2013-09-25 20:31:00,63.0,54.6,29.91,East,88,0.0,0.0,74,0.00,,,0.00,Wunderground v.1.15,2013-09-26 00:31:00,
2013-09-25 20:41:00,62.2,54.5,29.91,East,88,0.0,0.0,76,0.00,,,0.00,Wunderground v.1.15,2013-09-26 00:41:00,
2013-09-25 20:50:00,61.8,54.2,29.92,East,88,0.0,0.0,76,0.00,,,0.00,Wunderground v.1.15,2013-09-26 00:50:00,
2013-09-25 21:00:00,61.7,53.7,29.92,East,88,0.0,0.0,75,0.00,,,0.00,Wunderground v.1.15,2013-09-26 01:00:00,
2013-09-25 21:05:00,61.8,53.8,29.92,East,88,0.0,0.0,75,0.00,,,0.00,Wunderground v.1.15,2013-09-26 01:05:00,
2013-09-25 21:15:00,61.5,53.5,29.92,East,88,0.0,0.0,75,0.00,,,0.00,Wunderground v.1.15,2013-09-26 01:15:00,
2013-09-25 21:20:00,61.3,53.3,29.92,East,88,0.0,0.0,75,0.00,,,0.00,Wunderground v.1.15,2013-09-26 01:20:00,
2013-09-25 21:30:00,60.8,53.2,29.92,East,88,0.0,0.0,76,0.00,,,0.00,Wunderground v.1.15,2013-09-26 01:30:00,
2013-09-25 21:41:00,59.6,53.4,29.93,East,88,0.0,0.0,80,0.00,,,0.00,Wunderground v.1.15,2013-09-26 01:41:00,
2013-09-25 21:51:00,58.5,53.0,29.93,East,88,0.0,0.0,82,0.00,,,0.00,Wunderground v.1.15,2013-09-26 01:51:00,
2013-09-25 22:01:00,57.5,52.4,29.93,East,88,0.0,0.0,83,0.00,,,0.00,Wunderground v.1.15,2013-09-26 02:01:00,
2013-09-25 22:10:00,56.9,52.4,29.93,East,88,0.0,0.0,85,0.00,,,0.00,Wunderground v.1.15,2013-09-26 02:10:00,
2013-09-25 22:20:00,56.2,52.1,29.93,East,88,0.0,0.0,86,0.00,,,0.00,Wunderground v.1.15,2013-09-26 02:20:00,
2013-09-25 22:31:00,55.7,52.2,29.94,East,88,0.0,0.0,88,0.00,,,0.00,Wunderground v.1.15,2013-09-26 02:31:00,
2013-09-25 22:40:00,55.2,51.7,29.94,East,88,0.0,0.0,88,0.00,,,0.00,Wunderground v.1.15,2013-09-26 02:40:00,
2013-09-25 22:50:00,54.8,51.6,29.94,East,88,0.0,0.0,89,0.00,,,0.00,Wunderground v.1.15,2013-09-26 02:50:00,
2013-09-25 23:00:00,54.1,50.9,29.94,East,88,0.0,0.0,89,0.00,,,0.00,Wunderground v.1.15,2013-09-26 03:00:00,
2013-09-25 23:11:00,53.7,50.5,29.95,East,88,0.0,0.0,89,0.00,,,0.00,Wunderground v.1.15,2013-09-26 03:11:00,
2013-09-25 23:21:00,53.5,50.6,29.95,East,88,0.0,0.0,90,0.00,,,0.00,Wunderground v.1.15,2013-09-26 03:21:00,
2013-09-25 23:31:00,53.1,50.5,29.95,East,88,0.0,0.0,91,0.00,,,0.00,Wunderground v.1.15,2013-09-26 03:31:00,
2013-09-25 23:40:00,53.3,50.7,29.94,East,88,0.0,0.0,91,0.00,,,0.00,Wunderground v.1.15,2013-09-26 03:40:00,
2013-09-25 23:51:00,53.6,50.7,29.95,East,88,0.0,0.0,90,0.00,,,0.00,Wunderground v.1.15,2013-09-26 03:51:00,